Time;durP1;ratioP1;P1;durP2;ratioP2;P2;SDS_P1;SDS_P2;PMS_P1;PMS_P2;Temp;Humidity;BMP_temperature;BMP_pressure;BME280_temperature;BME280_humidity;BME280_pressure;Samples;Min_cycle;Max_cycle;Signal;HPM_P1;HPM_P2
2024/04/19 00:00:22;;;;;;;0.40;0.40;;;;;;;0.49;68.93;99912.66;5393132;26;20012;-66
2024/04/19 00:02:48;;;;;;;0.60;0.60;;;;;;;0.44;69.27;99909.13;5392488;26;20024;-67
2024/04/19 00:05:13;;;;;;;0.40;0.40;;;;;;;0.44;69.48;99907.44;5392729;26;20008;-67
2024/04/19 00:07:38;;;;;;;0.60;0.60;;;;;;;0.46;69.19;99905.75;5391079;26;20038;-67
2024/04/19 00:10:04;;;;;;;0.60;0.60;;;;;;;0.45;69.31;99904.03;5392833;26;20007;-66
2024/04/19 00:12:30;;;;;;;0.40;0.40;;;;;;;0.45;69.51;99900.63;5392057;26;20011;-66
2024/04/19 00:14:55;;;;;;;0.50;0.50;;;;;;;0.42;69.37;99892.88;5392221;26;20296;-66
2024/04/19 00:17:20;;;;;;;0.40;0.40;;;;;;;0.37;69.09;99882.56;5392437;26;20000;-67
2024/04/19 00:19:46;;;;;;;0.63;0.63;;;;;;;0.39;69.16;99888.56;5361342;26;20008;-66
2024/04/19 00:22:11;;;;;;;5.55;0.65;;;;;;;0.36;69.04;99875.72;5391574;26;20008;-66
2024/04/19 00:24:36;;;;;;;0.50;0.50;;;;;;;0.35;69.07;99881.66;5391395;26;20032;-67
2024/04/19 00:27:02;;;;;;;0.50;0.50;;;;;;;0.34;69.07;99878.25;5392760;26;20368;-66
2024/04/19 00:29:27;;;;;;;0.50;0.50;;;;;;;0.29;69.49;99873.88;5361335;26;20062;-67
2024/04/19 00:31:52;;;;;;;0.50;0.50;;;;;;;0.24;69.16;99874.59;5390775;26;20010;-67
2024/04/19 00:34:18;;;;;;;1.08;1.08;;;;;;;0.16;69.05;99863.31;5390428;26;19996;-66
2024/04/19 00:36:43;;;;;;;0.80;0.57;;;;;;;0.20;69.32;99867.69;5391652;26;20066;-66
2024/04/19 00:39:08;;;;;;;0.50;0.50;;;;;;;0.14;69.38;99865.00;5392050;26;20399;-67
2024/04/19 00:41:34;;;;;;;0.50;0.50;;;;;;;0.15;69.38;99863.28;5392200;26;20000;-67
2024/04/19 00:43:59;;;;;;;0.40;0.40;;;;;;;0.07;69.32;99851.19;5391905;26;20011;-66
2024/04/19 00:46:25;;;;;;;0.50;0.50;;;;;;;0.13;69.31;99850.47;5391739;26;20472;-65
2024/04/19 00:48:51;;;;;;;0.60;0.60;;;;;;;0.17;69.54;99857.41;5360666;26;20119;-67
2024/04/19 00:51:18;;;;;;;0.60;0.60;;;;;;;0.16;69.25;99850.56;5392028;26;20055;-67
2024/04/19 00:53:43;;;;;;;0.50;0.50;;;;;;;0.06;69.41;99841.81;5360478;26;20072;-67
2024/04/19 00:56:09;;;;;;;0.50;0.50;;;;;;;0.12;69.58;99851.31;5392121;26;20008;-67
2024/04/19 00:58:35;;;;;;;0.73;0.68;;;;;;;0.05;69.30;99841.78;5391901;26;20024;-67
2024/04/19 01:01:04;;;;;;;0.50;0.50;;;;;;;0.08;69.65;99849.53;5391975;26;20051;-66
2024/04/19 01:03:30;;;;;;;0.70;0.70;;;;;;;0.04;69.72;99842.59;5391137;26;20011;-66
2024/04/19 01:05:55;;;;;;;0.50;0.50;;;;;;;-0.02;69.81;99835.66;5390001;26;20004;-68
2024/04/19 01:08:23;;;;;;;0.40;0.40;;;;;;;-0.10;70.35;99812.50;5391615;26;20004;-66
2024/04/19 01:10:48;;;;;;;1.83;1.63;;;;;;;-0.03;70.44;99836.47;5391802;26;20016;-67
2024/04/19 01:13:14;;;;;;;0.80;0.80;;;;;;;-0.05;70.67;99844.06;5391489;26;20004;-66
2024/04/19 01:15:39;;;;;;;2.28;0.80;;;;;;;-0.09;71.03;99847.38;5391631;26;20004;-66
2024/04/19 01:18:06;;;;;;;0.50;0.50;;;;;;;-0.10;71.22;99848.22;5391453;26;20507;-67
2024/04/19 01:20:32;;;;;;;0.50;0.50;;;;;;;-0.14;71.39;99841.28;5392058;26;20011;-66
2024/04/19 01:22:58;;;;;;;0.40;0.40;;;;;;;-0.16;71.45;99842.94;5392096;26;20361;-67
2024/04/19 01:25:33;;;;;;;0.50;0.50;;;;;;;-0.22;71.34;99842.78;5362855;26;20000;-66
2024/04/19 01:27:58;;;;;;;0.40;0.40;;;;;;;-0.27;71.60;99833.31;5394559;26;20011;-66
2024/04/19 01:30:24;;;;;;;0.60;0.60;;;;;;;-0.26;71.50;99842.69;5394364;26;19996;-66
2024/04/19 01:32:49;;;;;;;0.50;0.50;;;;;;;-0.28;71.59;99839.25;5363570;26;20000;-67
2024/04/19 01:35:14;;;;;;;0.88;0.88;;;;;;;-0.35;71.39;99827.13;5394632;26;19996;-66
2024/04/19 01:37:40;;;;;;;0.65;0.65;;;;;;;-0.34;71.55;99828.88;5394517;26;20298;-66
2024/04/19 01:40:06;;;;;;;0.50;0.50;;;;;;;-0.34;71.88;99833.13;5394657;26;20011;-65
2024/04/19 01:42:32;;;;;;;0.60;0.60;;;;;;;-0.39;72.22;99823.66;5394636;26;20020;-67
2024/04/19 01:44:57;;;;;;;0.50;0.50;;;;;;;-0.44;72.01;99821.78;5394701;26;20081;-68
2024/04/19 01:47:22;;;;;;;1.67;1.58;;;;;;;-0.47;72.06;99808.97;5394605;26;20051;-66
2024/04/19 01:49:48;;;;;;;0.98;0.98;;;;;;;-0.44;72.11;99816.69;5394222;26;20031;-67
2024/04/19 01:52:14;;;;;;;0.50;0.50;;;;;;;-0.49;72.09;99808.91;5394525;26;20005;-67
2024/04/19 01:54:39;;;;;;;0.70;0.70;;;;;;;-0.50;71.73;99809.75;5363265;26;20004;-67
2024/04/19 01:57:05;;;;;;;0.60;0.55;;;;;;;-0.51;71.77;99813.09;5394341;26;20019;-66
2024/04/19 01:59:31;;;;;;;0.40;0.40;;;;;;;-0.53;71.92;99807.13;5394065;26;20018;-68
2024/04/19 02:01:56;;;;;;;0.50;0.50;;;;;;;-0.57;71.74;99795.97;5361183;26;20000;-67
2024/04/19 02:04:21;;;;;;;0.50;0.50;;;;;;;-0.62;71.65;99782.22;5391149;26;20000;-67
2024/04/19 02:06:47;;;;;;;0.50;0.50;;;;;;;-0.61;71.97;99785.63;5393919;26;20012;-67
2024/04/19 02:09:12;;;;;;;0.50;0.50;;;;;;;-0.62;72.08;99784.75;5363157;26;20004;-66
2024/04/19 02:11:38;;;;;;;0.50;0.50;;;;;;;-0.61;72.26;99778.88;5393906;26;20456;-66
2024/04/19 02:14:03;;;;;;;0.50;0.50;;;;;;;-0.66;72.58;99776.19;5363102;26;20011;-67
2024/04/19 02:16:29;;;;;;;0.43;0.43;;;;;;;-0.69;72.51;99772.69;5394101;26;20004;-67
2024/04/19 02:18:54;;;;;;;0.50;0.50;;;;;;;-0.65;72.99;99775.34;5391966;26;19996;-66
2024/04/19 02:21:19;;;;;;;0.55;0.55;;;;;;;-0.67;73.07;99776.16;5393825;26;20010;-66
2024/04/19 02:23:45;;;;;;;0.88;0.60;;;;;;;-0.70;73.27;99764.16;5391998;26;20053;-66
2024/04/19 02:26:11;;;;;;;0.50;0.50;;;;;;;-0.67;73.59;99776.16;5363026;26;20004;-67
2024/04/19 02:31:23;;;;;;;0.50;0.50;;;;;;;-0.75;73.92;99764.03;5394324;26;20008;-67
2024/04/19 02:33:48;;;;;;;0.52;0.52;;;;;;;-0.76;74.03;99762.31;5393719;26;20004;-67
2024/04/19 02:36:14;;;;;;;0.50;0.50;;;;;;;-0.75;74.11;99751.28;5391331;26;20010;-67
2024/04/19 02:38:39;;;;;;;1.00;1.00;;;;;;;-0.77;74.16;99749.53;5391967;26;20012;-66
2024/04/19 02:41:05;;;;;;;0.85;0.68;;;;;;;-0.75;74.49;99750.44;5393019;26;20006;-66
2024/04/19 02:43:31;;;;;;;0.80;0.80;;;;;;;-0.73;74.78;99743.69;5392219;26;20016;-66
2024/04/19 02:46:01;;;;;;;2.35;0.77;;;;;;;-0.70;74.99;99740.38;5393574;26;20007;-67
2024/04/19 02:48:26;;;;;;;0.93;0.93;;;;;;;-0.73;75.28;99737.72;5393947;26;20406;-66
2024/04/19 02:50:53;;;;;;;0.63;0.52;;;;;;;-0.77;75.32;99731.69;5392445;26;20000;-66
2024/04/19 02:53:18;;;;;;;0.40;0.40;;;;;;;-0.77;75.16;99731.69;5393729;26;20028;-68
2024/04/19 02:55:44;;;;;;;0.40;0.40;;;;;;;-0.81;75.24;99724.78;5393427;26;20490;-67
2024/04/19 02:58:09;;;;;;;0.60;0.60;;;;;;;-0.74;75.27;99731.78;5393299;26;20393;-67
2024/04/19 03:00:35;;;;;;;1.10;0.73;;;;;;;-0.79;75.35;99729.09;5393691;26;20000;-66
2024/04/19 03:03:00;;;;;;;0.40;0.40;;;;;;;-0.78;75.52;99725.72;5362400;26;20007;-66
2024/04/19 03:05:26;;;;;;;0.70;0.70;;;;;;;-0.75;75.58;99725.81;5393818;26;20048;-67
2024/04/19 03:07:51;;;;;;;0.88;0.85;;;;;;;-0.77;75.48;99719.78;5393559;26;20012;-67
2024/04/19 03:10:16;;;;;;;0.80;0.80;;;;;;;-0.70;75.93;99720.00;5393162;26;20004;-66
2024/04/19 03:12:42;;;;;;;0.45;0.45;;;;;;;-0.75;75.87;99718.16;5391871;26;20072;-67
2024/04/19 03:15:07;;;;;;;0.50;0.50;;;;;;;-0.71;76.04;99720.78;5393427;26;20008;-67
2024/04/19 03:17:33;;;;;;;0.57;0.57;;;;;;;-0.72;76.07;99708.88;5393056;26;20000;-67
2024/04/19 03:19:58;;;;;;;0.47;0.47;;;;;;;-0.70;76.35;99707.25;5393197;26;20007;-66
2024/04/19 03:22:24;;;;;;;0.50;0.50;;;;;;;-0.71;76.70;99710.59;5393431;26;20000;-66
2024/04/19 03:24:49;;;;;;;0.60;0.60;;;;;;;-0.73;76.81;99704.56;5361610;26;20000;-65
2024/04/19 03:27:14;;;;;;;0.40;0.40;;;;;;;-0.70;76.71;99704.69;5391223;26;20001;-66
2024/04/19 03:29:40;;;;;;;1.08;0.98;;;;;;;-0.73;76.85;99702.91;5391069;26;20012;-66
2024/04/19 03:32:05;;;;;;;0.43;0.43;;;;;;;-0.70;76.73;99702.13;5392819;26;20055;-66
2024/04/19 03:34:31;;;;;;;24.65;1.27;;;;;;;-0.70;77.08;99699.59;5392544;26;20040;-65
2024/04/19 03:36:56;;;;;;;0.50;0.50;;;;;;;-0.73;77.13;99689.28;5393235;26;20000;-66
2024/04/19 03:39:21;;;;;;;0.50;0.50;;;;;;;-0.77;77.20;99691.75;5391551;26;20008;-67
2024/04/19 03:41:47;;;;;;;0.82;0.70;;;;;;;-0.77;77.11;99689.22;5393177;26;20020;-66
2024/04/19 03:46:57;;;;;;;0.60;0.60;;;;;;;-0.68;76.97;99690.28;5392273;26;20019;-67
2024/04/19 03:49:22;;;;;;;0.57;0.57;;;;;;;-0.69;77.17;99688.56;5392679;26;20000;-66
2024/04/19 03:51:49;;;;;;;0.40;0.40;;;;;;;-0.70;77.09;99687.69;5361934;26;20015;-66
2024/04/19 03:54:14;;;;;;;0.60;0.60;;;;;;;-0.68;76.82;99677.53;5361036;26;20012;-67
2024/04/19 03:56:39;;;;;;;0.40;0.40;;;;;;;-0.64;77.08;99682.75;5392904;26;20054;-66
2024/04/19 03:59:05;;;;;;;1.25;1.15;;;;;;;-0.67;76.86;99676.72;5392353;26;20014;-65
2024/04/19 04:01:30;;;;;;;0.52;0.52;;;;;;;-0.64;77.20;99682.75;5390275;26;19996;-68
2024/04/19 04:03:55;;;;;;;0.50;0.50;;;;;;;-0.62;77.04;99680.22;5392237;26;20436;-66
2024/04/19 04:06:21;;;;;;;0.43;0.43;;;;;;;-0.58;77.01;99676.94;5392315;26;20016;-66
2024/04/19 04:08:47;;;;;;;0.50;0.50;;;;;;;-0.57;77.02;99676.13;5392660;26;20374;-67
2024/04/19 04:11:12;;;;;;;0.50;0.50;;;;;;;-0.59;77.01;99671.81;5392650;26;20000;-66
2024/04/19 04:13:41;;;;;;;0.50;0.50;;;;;;;-0.54;77.39;99668.53;5392103;26;20051;-66
2024/04/19 04:16:08;;;;;;;0.40;0.40;;;;;;;-0.48;77.28;99677.19;5392417;26;20014;-66
2024/04/19 04:18:34;;;;;;;1.25;0.90;;;;;;;-0.47;77.30;99673.78;5392325;26;20024;-67
2024/04/19 04:21:02;;;;;;;0.50;0.50;;;;;;;-0.42;77.39;99683.31;5392834;26;19996;-66
2024/04/19 04:23:30;;;;;;;0.50;0.50;;;;;;;-0.41;77.66;99681.59;5392372;26;20014;-66
2024/04/19 04:25:56;;;;;;;1.50;0.90;;;;;;;-0.27;77.65;99679.38;5392396;26;20000;-66
2024/04/19 04:28:22;;;;;;;0.73;0.73;;;;;;;-0.05;78.47;99680.75;5392396;26;20011;-67
2024/04/19 04:30:47;;;;;;;0.98;0.85;;;;;;;0.28;78.33;99683.16;5392213;26;20000;-65
2024/04/19 04:33:13;;;;;;;2.50;2.38;;;;;;;0.55;78.29;99679.47;5392126;26;20019;-65
2024/04/19 04:35:38;;;;;;;0.70;0.70;;;;;;;0.79;77.88;99679.13;5391905;26;19997;-66
2024/04/19 04:38:05;;;;;;;0.73;0.73;;;;;;;1.02;77.34;99680.41;5392198;26;20082;-66
2024/04/19 04:40:32;;;;;;;0.70;0.70;;;;;;;1.14;76.91;99677.19;5391904;26;20011;-66
2024/04/19 04:42:58;;;;;;;1.50;0.95;;;;;;;1.24;76.21;99663.75;5390665;26;20000;-66
2024/04/19 04:45:23;;;;;;;0.45;0.45;;;;;;;1.17;75.12;99665.34;5391481;26;20074;-67
2024/04/19 04:47:49;;;;;;;1.00;1.00;;;;;;;1.09;74.86;99677.97;5392221;26;20004;-67
2024/04/19 04:50:14;;;;;;;0.40;0.40;;;;;;;0.89;74.33;99663.97;5392011;26;20050;-67
2024/04/19 04:52:40;;;;;;;0.90;0.90;;;;;;;0.70;74.49;99671.28;5391697;26;20011;-66
2024/04/19 04:55:06;;;;;;;0.50;0.50;;;;;;;0.57;74.30;99662.50;5391560;26;20451;-66
2024/04/19 04:57:32;;;;;;;0.90;0.90;;;;;;;0.41;74.12;99666.44;5391800;26;20036;-67
2024/04/19 04:59:57;;;;;;;0.45;0.45;;;;;;;0.29;74.35;99674.69;5393124;26;20011;-67
2024/04/19 05:02:23;;;;;;;0.93;0.93;;;;;;;0.15;74.15;99675.25;5395205;26;20000;-66
2024/04/19 05:04:48;;;;;;;0.70;0.70;;;;;;;0.07;74.28;99672.53;5394751;26;20328;-65
2024/04/19 05:07:14;;;;;;;1.52;1.42;;;;;;;-0.01;74.21;99674.91;5393381;26;20000;-65
2024/04/19 05:09:39;;;;;;;0.50;0.50;;;;;;;-0.14;74.27;99683.09;5394710;26;20004;-65
2024/04/19 05:12:05;;;;;;;0.63;0.63;;;;;;;-0.25;74.65;99680.28;5395254;26;20058;-66
2024/04/19 05:14:30;;;;;;;1.02;0.90;;;;;;;-0.32;74.86;99676.72;5394697;26;20054;-65
2024/04/19 05:16:56;;;;;;;0.95;0.95;;;;;;;-0.34;75.29;99683.50;5393869;26;20004;-65
2024/04/19 05:19:21;;;;;;;0.88;0.70;;;;;;;-0.40;75.48;99660.38;5364056;26;20008;-66
2024/04/19 05:21:47;;;;;;;4.60;1.52;;;;;;;-0.45;75.85;99677.25;5394880;26;20004;-65
2024/04/19 05:24:12;;;;;;;0.65;0.65;;;;;;;-0.56;75.97;99680.38;5395141;26;20005;-66
2024/04/19 05:26:37;;;;;;;0.50;0.50;;;;;;;-0.57;76.12;99681.22;5395322;26;20000;-64
2024/04/19 05:29:03;;;;;;;0.60;0.60;;;;;;;-0.69;76.07;99674.13;5395239;26;20011;-66
2024/04/19 05:31:28;;;;;;;0.77;0.77;;;;;;;-0.78;76.72;99674.75;5393494;26;20014;-66
2024/04/19 05:33:54;;;;;;;0.57;0.57;;;;;;;-0.78;76.95;99671.31;5395038;26;20004;-66
2024/04/19 05:36:19;;;;;;;0.77;0.77;;;;;;;-0.76;77.33;99672.25;5395015;26;20004;-66
2024/04/19 05:38:45;;;;;;;0.57;0.57;;;;;;;-0.68;77.03;99670.75;5394861;26;20045;-66
2024/04/19 05:41:10;;;;;;;0.50;0.50;;;;;;;-0.59;77.13;99662.47;5392711;26;20112;-65
2024/04/19 05:43:36;;;;;;;0.50;0.50;;;;;;;-0.58;77.36;99664.22;5364420;26;20437;-66
2024/04/19 05:46:01;;;;;;;0.50;0.50;;;;;;;-0.51;77.31;99662.66;5395119;26;20011;-66
2024/04/19 05:48:26;;;;;;;0.50;0.50;;;;;;;-0.35;77.32;99658.78;5395193;26;20000;-67
2024/04/19 05:50:52;;;;;;;0.77;0.77;;;;;;;-0.25;76.64;99657.31;5395350;26;20011;-67
2024/04/19 05:53:17;;;;;;;0.70;0.70;;;;;;;-0.34;76.98;99654.56;5393298;26;20000;-66
2024/04/19 05:55:44;;;;;;;0.50;0.50;;;;;;;-0.29;76.73;99656.38;5395029;26;20004;-66
2024/04/19 05:58:09;;;;;;;0.50;0.50;;;;;;;-0.22;76.89;99659.94;5395305;26;20033;-66
2024/04/19 06:00:35;;;;;;;0.93;0.93;;;;;;;-0.16;76.37;99654.97;5363002;26;20004;-66
2024/04/19 06:03:00;;;;;;;0.50;0.50;;;;;;;-0.14;76.83;99645.69;5393098;26;20004;-66
2024/04/19 06:05:26;;;;;;;0.52;0.52;;;;;;;0.07;76.80;99656.34;5394420;26;19996;-65
2024/04/19 06:07:51;;;;;;;1.75;1.00;;;;;;;0.19;76.66;99643.00;5363834;26;20349;-67
2024/04/19 06:10:16;;;;;;;1.20;0.93;;;;;;;0.40;76.54;99637.47;5394810;26;20050;-66
2024/04/19 06:12:42;;;;;;;0.60;0.60;;;;;;;0.51;76.28;99639.38;5363996;26;20115;-66
2024/04/19 06:15:07;;;;;;;0.70;0.57;;;;;;;0.72;75.41;99631.25;5394876;26;20000;-65
2024/04/19 06:17:33;;;;;;;0.70;0.70;;;;;;;0.92;74.62;99638.47;5395009;26;20011;-66
2024/04/19 06:19:59;;;;;;;0.60;0.60;;;;;;;1.03;73.94;99631.84;5394394;26;20005;-65
2024/04/19 06:22:24;;;;;;;1.05;0.95;;;;;;;1.13;74.29;99634.56;5394678;26;20046;-67
2024/04/19 06:24:49;;;;;;;0.50;0.50;;;;;;;1.61;75.52;99627.72;5392592;26;20000;-66
2024/04/19 06:27:15;;;;;;;0.40;0.40;;;;;;;2.33;74.71;99638.94;5394897;26;20073;-65
2024/04/19 06:29:40;;;;;;;0.77;0.60;;;;;;;2.82;71.80;99637.81;5394574;26;20544;-66
2024/04/19 06:32:06;;;;;;;1.17;1.08;;;;;;;2.99;70.32;99627.72;5395033;26;20004;-66
2024/04/19 06:34:31;;;;;;;1.63;1.50;;;;;;;3.02;68.78;99626.91;5392372;26;19997;-66
2024/04/19 06:36:57;;;;;;;0.50;0.50;;;;;;;2.91;69.41;99621.66;5392978;26;19996;-66
2024/04/19 06:39:26;;;;;;;0.50;0.50;;;;;;;2.86;68.15;99616.47;5394849;26;20007;-65
2024/04/19 06:41:52;;;;;;;0.52;0.52;;;;;;;2.86;68.28;99613.91;5394519;26;20015;-65
2024/04/19 06:44:17;;;;;;;4.43;0.75;;;;;;;3.18;68.84;99613.38;5394238;26;20078;-66
2024/04/19 06:46:42;;;;;;;0.50;0.50;;;;;;;3.32;67.84;99621.19;5363147;26;20012;-65
2024/04/19 06:49:08;;;;;;;0.55;0.55;;;;;;;3.45;65.83;99606.75;5394368;26;20025;-65
2024/04/19 06:51:33;;;;;;;0.40;0.40;;;;;;;3.51;65.99;99602.53;5394450;26;20000;-67
2024/04/19 06:53:58;;;;;;;0.63;0.63;;;;;;;3.78;65.90;99613.84;5394194;26;20320;-67
2024/04/19 06:56:24;;;;;;;0.47;0.47;;;;;;;3.94;65.21;99620.78;5394340;26;20004;-65
2024/04/19 06:58:49;;;;;;;1.02;0.65;;;;;;;4.11;65.15;99606.31;5392221;26;20003;-67
2024/04/19 07:01:15;;;;;;;1.27;0.82;;;;;;;4.66;66.19;99615.09;5394201;26;20008;-66
2024/04/19 07:03:41;;;;;;;0.50;0.50;;;;;;;5.16;64.65;99613.47;5363046;26;19996;-66
2024/04/19 07:06:10;;;;;;;0.65;0.60;;;;;;;5.41;60.35;99618.66;5394051;26;20000;-66
2024/04/19 07:08:36;;;;;;;0.73;0.73;;;;;;;5.24;57.71;99615.22;5394112;26;20460;-66
2024/04/19 07:11:02;;;;;;;0.38;0.38;;;;;;;5.00;58.20;99635.75;5394132;26;20292;-65
2024/04/19 07:13:28;;;;;;;0.55;0.55;;;;;;;4.75;59.39;99607.41;5393927;26;20332;-66
2024/04/19 07:15:53;;;;;;;0.65;0.65;;;;;;;4.70;59.61;99617.69;5393539;26;20000;-67
2024/04/19 07:18:22;;;;;;;0.50;0.50;;;;;;;4.62;58.70;99619.38;5394134;26;20004;-67
2024/04/19 07:20:50;;;;;;;0.60;0.60;;;;;;;4.32;59.32;99611.56;5393526;26;20011;-66
2024/04/19 07:23:17;;;;;;;0.68;0.68;;;;;;;4.18;59.84;99629.50;5392906;26;20414;-65
2024/04/19 07:25:42;;;;;;;0.43;0.43;;;;;;;3.94;59.44;99625.06;5393903;26;20000;-66
2024/04/19 07:28:08;;;;;;;0.50;0.50;;;;;;;3.70;59.55;99632.63;5362967;26;20015;-66
2024/04/19 07:30:33;;;;;;;0.80;0.80;;;;;;;3.52;59.89;99643.59;5393826;26;20095;-66
2024/04/19 07:32:58;;;;;;;0.50;0.50;;;;;;;3.38;59.96;99630.66;5393972;26;20015;-66
2024/04/19 07:35:24;;;;;;;0.40;0.40;;;;;;;3.21;60.40;99628.78;5391292;26;20015;-65
2024/04/19 07:37:49;;;;;;;0.60;0.60;;;;;;;3.23;61.01;99628.78;5393609;26;20011;-66
2024/04/19 07:40:15;;;;;;;0.50;0.50;;;;;;;3.27;61.18;99628.00;5393717;26;20488;-66
2024/04/19 07:42:40;;;;;;;0.60;0.60;;;;;;;3.16;60.88;99620.22;5393531;26;20028;-67
2024/04/19 07:45:07;;;;;;;0.47;0.47;;;;;;;3.13;60.68;99642.41;5391664;26;20082;-65
2024/04/19 07:47:32;;;;;;;0.50;0.50;;;;;;;3.04;60.78;99605.56;5362393;26;20004;-66
2024/04/19 07:49:58;;;;;;;0.50;0.50;;;;;;;3.09;61.42;99619.28;5393314;26;20032;-66
2024/04/19 07:52:23;;;;;;;0.45;0.45;;;;;;;3.22;60.91;99606.56;5391925;26;20055;-65
2024/04/19 07:54:48;;;;;;;0.60;0.60;;;;;;;3.26;61.15;99620.28;5392960;26;20032;-66
2024/04/19 07:57:14;;;;;;;0.50;0.50;;;;;;;3.33;61.30;99611.78;5391838;26;20328;-66
2024/04/19 07:59:39;;;;;;;0.50;0.50;;;;;;;3.47;61.51;99625.59;5391482;26;20000;-65
2024/04/19 08:02:04;;;;;;;0.60;0.60;;;;;;;3.50;60.56;99622.19;5391551;26;20008;-67
2024/04/19 08:04:30;;;;;;;1.27;1.17;;;;;;;3.39;60.31;99604.13;5393280;26;20019;-66
2024/04/19 08:06:55;;;;;;;0.52;0.52;;;;;;;3.44;60.55;99617.88;5393252;26;20017;-66
2024/04/19 08:09:20;;;;;;;0.40;0.40;;;;;;;3.57;60.67;99598.31;5393200;26;20167;-67
2024/04/19 08:11:46;;;;;;;0.40;0.40;;;;;;;3.74;60.29;99601.84;5393314;26;20004;-65
2024/04/19 08:14:12;;;;;;;0.50;0.50;;;;;;;3.68;59.05;99587.22;5393584;26;20019;-66
2024/04/19 08:16:37;;;;;;;0.70;0.70;;;;;;;3.74;59.26;99601.84;5393167;26;20000;-67
2024/04/19 08:19:04;;;;;;;0.43;0.43;;;;;;;4.00;58.92;99588.28;5393319;26;20062;-66
2024/04/19 08:21:29;;;;;;;0.57;0.57;;;;;;;4.29;58.27;99611.56;5391608;26;20012;-66
2024/04/19 08:23:55;;;;;;;0.40;0.40;;;;;;;4.59;57.20;99591.97;5392781;26;20036;-65
2024/04/19 08:26:20;;;;;;;0.80;0.80;;;;;;;4.53;56.84;99591.94;5392757;26;20012;-67
2024/04/19 08:28:46;;;;;;;0.50;0.50;;;;;;;4.86;56.65;99596.31;5392692;26;20012;-66
2024/04/19 08:31:12;;;;;;;0.43;0.43;;;;;;;4.99;56.73;99602.31;5392789;26;20000;-66
2024/04/19 08:33:37;;;;;;;0.45;0.45;;;;;;;5.15;55.95;99586.03;5391691;26;20050;-66
2024/04/19 08:36:03;;;;;;;0.55;0.50;;;;;;;4.98;55.33;99600.59;5392418;26;20016;-67
2024/04/19 08:38:29;;;;;;;0.50;0.50;;;;;;;4.62;56.04;99591.09;5392712;26;20397;-66
2024/04/19 08:41:01;;;;;;;0.65;0.60;;;;;;;4.60;56.24;99597.94;5392399;26;20134;-66
2024/04/19 08:43:30;;;;;;;0.60;0.60;;;;;;;4.39;55.82;99594.47;5392458;26;20004;-66
2024/04/19 08:45:58;;;;;;;0.50;0.50;;;;;;;4.20;56.17;99607.22;5392835;26;20008;-67
2024/04/19 08:48:24;;;;;;;7.78;0.95;;;;;;;4.00;56.79;99593.41;5362471;26;19996;-66
2024/04/19 08:50:50;;;;;;;0.50;0.50;;;;;;;3.98;56.80;99621.66;5392736;26;20015;-66
2024/04/19 08:53:16;;;;;;;0.68;0.68;;;;;;;3.93;56.85;99597.69;5392969;26;20004;-65
2024/04/19 08:55:43;;;;;;;0.50;0.43;;;;;;;4.04;57.28;99595.16;5392895;26;20000;-68
2024/04/19 08:58:09;;;;;;;1.45;0.75;;;;;;;4.09;56.96;99602.03;5393352;26;20001;-66
2024/04/19 09:00:35;;;;;;;0.65;0.65;;;;;;;4.20;56.25;99602.06;5361906;26;20037;-66
2024/04/19 09:03:00;;;;;;;0.50;0.50;;;;;;;4.16;56.32;99600.34;5392957;26;20000;-68
2024/04/19 09:05:26;;;;;;;0.40;0.40;;;;;;;4.62;56.45;99605.69;5390723;26;19996;-68
2024/04/19 09:07:51;;;;;;;0.50;0.50;;;;;;;4.86;54.76;99612.59;5392727;26;20000;-65
2024/04/19 09:10:20;;;;;;;0.40;0.40;;;;;;;4.64;54.86;99589.41;5332888;26;20001;-67
2024/04/19 09:12:45;;;;;;;2.15;0.90;;;;;;;4.57;55.58;99596.22;5392459;26;20011;-67
2024/04/19 09:15:11;;;;;;;1.52;1.20;;;;;;;4.70;54.91;99588.53;5392172;26;20004;-66
2024/04/19 09:17:36;;;;;;;0.52;0.52;;;;;;;4.67;54.83;99591.97;5392157;26;20543;-65
2024/04/19 09:20:02;;;;;;;0.50;0.50;;;;;;;4.80;54.04;99615.16;5390463;26;20066;-67
2024/04/19 09:22:27;;;;;;;0.75;0.75;;;;;;;4.68;53.87;99598.81;5392110;26;20461;-68
2024/04/19 09:24:54;;;;;;;0.50;0.50;;;;;;;4.82;53.63;99598.00;5360528;26;20008;-66
2024/04/19 09:27:22;;;;;;;0.85;0.70;;;;;;;5.19;53.92;99584.34;5392176;26;20004;-66
2024/04/19 09:29:49;;;;;;;4.00;0.70;;;;;;;6.23;52.47;99574.75;5391753;26;20004;-67
2024/04/19 09:32:19;;;;;;;0.50;0.50;;;;;;;7.03;50.43;99570.84;5391905;26;20028;-67
2024/04/19 09:34:45;;;;;;;0.52;0.50;;;;;;;7.48;48.02;99566.19;5389796;26;20011;-68
2024/04/19 09:37:11;;;;;;;0.93;0.93;;;;;;;7.58;47.40;99583.31;5391920;26;20000;-66
2024/04/19 09:39:38;;;;;;;0.43;0.43;;;;;;;7.75;47.21;99587.44;5391753;26;20008;-67
2024/04/19 09:42:03;;;;;;;0.70;0.70;;;;;;;8.30;47.30;99557.56;5360792;26;20009;-68
2024/04/19 09:44:31;;;;;;;0.55;0.50;;;;;;;8.65;45.81;99586.44;5391450;26;20001;-67
2024/04/19 09:47:03;;;;;;;0.47;0.47;;;;;;;8.01;45.35;99583.75;5394469;26;20000;-68
2024/04/19 09:49:30;;;;;;;0.85;0.85;;;;;;;7.41;45.33;99583.47;5395108;26;20024;-67
2024/04/19 09:51:56;;;;;;;0.45;0.45;;;;;;;6.94;46.02;99561.47;5395196;26;20008;-67
2024/04/19 09:54:26;;;;;;;0.70;0.70;;;;;;;6.51;47.60;99561.72;5395230;26;20004;-68
2024/04/19 09:56:56;;;;;;;0.50;0.50;;;;;;;7.45;49.14;99567.06;5394897;26;20158;-66
2024/04/19 09:59:24;;;;;;;0.50;0.50;;;;;;;8.92;45.53;99566.22;5394738;26;20306;-67
2024/04/19 10:01:50;;;;;;;0.50;0.38;;;;;;;9.40;44.25;99559.41;5392902;26;20000;-67
2024/04/19 10:04:16;;;;;;;0.40;0.40;;;;;;;9.82;42.90;99560.41;5393855;26;20004;-67
2024/04/19 10:06:43;;;;;;;0.60;0.60;;;;;;;9.89;43.43;99554.22;5395027;26;20055;-67
2024/04/19 10:09:13;;;;;;;0.95;0.95;;;;;;;10.02;42.59;99517.66;5363672;26;20004;-67
2024/04/19 10:11:41;;;;;;;0.73;0.73;;;;;;;10.25;42.82;99543.13;5394763;26;20035;-67
2024/04/19 10:14:07;;;;;;;0.40;0.40;;;;;;;9.39;42.00;99572.41;5394930;26;20012;-66
2024/04/19 10:16:33;;;;;;;0.50;0.50;;;;;;;8.51;42.89;99568.50;5394840;26;20029;-67
2024/04/19 10:18:59;;;;;;;0.50;0.50;;;;;;;7.72;44.83;99548.72;5394233;26;20005;-68
2024/04/19 10:21:28;;;;;;;0.57;0.57;;;;;;;7.35;45.93;99574.03;5394984;26;20020;-68
2024/04/19 10:23:54;;;;;;;0.60;0.60;;;;;;;7.10;46.11;99574.25;5394555;26;20004;-68
2024/04/19 10:26:23;;;;;;;0.40;0.40;;;;;;;6.74;46.25;99547.84;5394450;26;20002;-67
2024/04/19 10:28:58;;;;;;;0.40;0.40;;;;;;;6.85;46.41;99577.00;5394584;26;20278;-67
2024/04/19 10:31:23;;;;;;;0.43;0.43;;;;;;;6.88;44.60;99601.94;5394703;26;20004;-68
2024/04/19 10:33:49;;;;;;;0.57;0.57;;;;;;;6.84;45.24;99561.53;5363617;26;20011;-67
2024/04/19 10:36:14;;;;;;;0.50;0.50;;;;;;;7.67;45.13;99559.97;5394358;26;20004;-68
2024/04/19 10:38:40;;;;;;;0.52;0.52;;;;;;;9.02;41.68;99572.13;5394556;26;20062;-68
2024/04/19 10:41:05;;;;;;;0.50;0.50;;;;;;;9.11;41.59;99570.25;5394516;26;20448;-69
2024/04/19 10:43:31;;;;;;;0.40;0.40;;;;;;;9.53;41.30;99551.41;5394453;26;20005;-69
2024/04/19 10:46:00;;;;;;;0.50;0.50;;;;;;;9.52;40.45;99549.72;5363208;26;20019;-67
2024/04/19 10:48:26;;;;;;;0.50;0.50;;;;;;;9.52;40.71;99552.31;5394687;26;20015;-70
2024/04/19 10:50:52;;;;;;;0.50;0.50;;;;;;;9.63;38.94;99541.75;5394315;26;20008;-67
2024/04/19 10:53:20;;;;;;;1.45;0.75;;;;;;;9.47;39.92;99551.53;5363471;26;20004;-68
2024/04/19 10:55:46;;;;;;;0.57;0.57;;;;;;;9.74;39.96;99562.28;5363264;26;20316;-67
2024/04/19 10:58:12;;;;;;;0.85;0.85;;;;;;;9.25;39.18;99552.75;5393263;26;20424;-67
2024/04/19 11:00:43;;;;;;;1.23;0.60;;;;;;;8.65;40.52;99554.53;5394142;26;20000;-67
2024/04/19 11:03:08;;;;;;;0.40;0.40;;;;;;;8.58;40.18;99564.09;5394215;26;20090;-67
2024/04/19 11:05:34;;;;;;;0.55;0.55;;;;;;;8.18;40.01;99555.97;5393647;26;20468;-67
2024/04/19 11:07:59;;;;;;;0.43;0.43;;;;;;;7.70;40.80;99577.16;5394408;26;20032;-68
2024/04/19 11:10:25;;;;;;;0.50;0.50;;;;;;;7.30;40.45;99544.84;5394143;26;20081;-67
2024/04/19 11:12:52;;;;;;;0.52;0.52;;;;;;;7.28;41.71;99549.16;5394076;26;20425;-66
2024/04/19 11:15:20;;;;;;;0.40;0.40;;;;;;;8.36;41.64;99540.22;5393839;26;20000;-67
2024/04/19 11:17:45;;;;;;;0.40;0.40;;;;;;;9.70;39.14;99550.25;5394117;26;20077;-68
2024/04/19 11:20:11;;;;;;;0.50;0.50;;;;;;;9.39;38.08;99565.47;5393853;26;20016;-67
2024/04/19 11:22:37;;;;;;;0.50;0.50;;;;;;;9.82;36.93;99539.66;5363112;26;20525;-69
2024/04/19 11:25:03;;;;;;;0.40;0.40;;;;;;;10.09;37.17;99550.38;5391616;26;20011;-68
2024/04/19 11:27:30;;;;;;;0.47;0.47;;;;;;;9.42;36.43;99525.72;5394048;26;20011;-66
2024/04/19 11:29:57;;;;;;;0.50;0.50;;;;;;;8.52;38.06;99536.56;5391976;26;20094;-68
2024/04/19 11:32:23;;;;;;;3.50;0.60;;;;;;;8.14;39.62;99537.94;5362945;26;20001;-67
2024/04/19 11:34:49;;;;;;;0.80;0.80;;;;;;;7.80;39.96;99544.34;5393099;26;20348;-68
2024/04/19 11:37:15;;;;;;;0.50;0.50;;;;;;;7.48;40.14;99535.19;5393264;26;20004;-68